Arroyo, Texas
Current Conditions -  °F | °C
As of 8:52 PM on Saturday 25 Oct 2014 (Local Time) from KHRL Reporting Station
Clear Clear  
Wind Chill: 69°   Ceiling: Unl
Heat Index: 69°   Visibility: 10mi
Dew Point: 64°   Wind: 3mph
Humidity: 84%   Direction: 110°ESE
Pressure: 30.1"   Gusts: NA
Location:  26.2089°N, 97.6849°W
Report Text: KHRL 260152Z 11003KT 10SM CLR 21/18 A3010 RMK AO2 SLP192 T02060178
Loading
Personal Weather Stations






























Interactive Weather Map
Tropical Storm Tracking
New forecast layout! Learn more

10-Day Weather Forecast

Advertisements
Track Severe Weather on mobile